Terminal Aerodrome Forecast
Issued by NWS Cleveland, OH

Home | Current Version | Previous Version | Text Only | Print | Product List | Glossary Off
Versions: 1 2 3 4 5 6 7 8 9 10 11 12 13 14 15 16 17 18

000
FTUS41 KCLE 031300 AAA
TAFTOL
TAF AMD
KTOL 031313Z 0313/0412 14007KT 6SM -SN BKN035 OVC060
      TEMPO 0313/0315 1 1/2SM -SN OVC030
     FM031600 15010KT 4SM -FZRAPL BR BKN015 OVC050
     FM031800 20015KT 2SM -RA BR BKN005 OVC015 WS020/22045KT
     FM040100 25015G25KT 6SM BR SCT005 OVC015
     FM040800 28012KT P6SM BKN018=

USA.gov is the U.S. government's official web portal to all federal, state and local government web resources and services.